Time;durP1;ratioP1;P1;durP2;ratioP2;P2;SDS_P1;SDS_P2;PMS_P1;PMS_P2;Temp;Humidity;BMP_temperature;BMP_pressure;BME280_temperature;BME280_humidity;BME280_pressure;Samples;Min_cycle;Max_cycle;Signal;HPM_P1;HPM_P2
2023/11/06 00:00:15;;;;;;;7.03;1.00;;;;;;;-145.69;56.00;52230.50;5114795;28;20208;-81
2023/11/06 00:02:42;;;;;;;2.43;0.90;;;;;;;-145.69;56.57;52244.38;5114600;28;20243;-80
2023/11/06 00:05:10;;;;;;;3.00;0.60;;;;;;;-145.69;56.51;52254.28;5114699;28;20544;-82
2023/11/06 00:07:38;;;;;;;3.67;0.90;;;;;;;-145.69;56.07;52238.44;5114920;28;20197;-81
2023/11/06 00:10:08;;;;;;;2.40;0.97;;;;;;;-145.69;55.67;52234.47;5114897;28;20583;-81
2023/11/06 00:12:40;;;;;;;3.47;1.00;;;;;;;-145.69;55.52;52206.75;5114466;28;20274;-81
2023/11/06 00:15:09;;;;;;;3.27;0.80;;;;;;;-145.69;55.37;52208.72;5115016;28;20564;-81
2023/11/06 00:17:37;;;;;;;3.73;0.77;;;;;;;-145.69;55.36;52226.53;5114866;28;20198;-81
2023/11/06 00:20:04;;;;;;;3.10;0.90;;;;;;;-145.69;55.69;52240.41;5114250;28;20194;-80
2023/11/06 00:22:33;;;;;;;1.63;0.93;;;;;;;-145.69;55.59;52222.59;5114425;28;20204;-80
2023/11/06 00:24:59;;;;;;;4.57;0.97;;;;;;;-145.69;55.78;52230.50;5114437;28;20201;-80
2023/11/06 00:27:29;;;;;;;2.67;1.00;;;;;;;-145.69;55.82;52234.47;5114646;28;20224;-80
2023/11/06 00:29:55;;;;;;;3.03;0.80;;;;;;;-145.69;56.62;52210.72;5114458;28;20189;-80
2023/11/06 00:32:22;;;;;;;4.73;0.80;;;;;;;-145.69;56.52;52240.41;5113844;28;20221;-81
2023/11/06 00:34:48;;;;;;;7.03;0.90;;;;;;;-145.69;56.10;52242.38;5114202;28;20652;-81
2023/11/06 00:37:15;;;;;;;4.17;0.83;;;;;;;-145.69;55.46;52226.53;5114411;28;20225;-81
2023/11/06 00:39:44;;;;;;;4.70;1.13;;;;;;;-145.69;55.16;52198.81;5114356;28;20208;-81
2023/11/06 00:42:12;;;;;;;3.10;0.70;;;;;;;-145.69;55.71;52206.75;5114604;28;20193;-82
2023/11/06 00:44:41;;;;;;;5.50;0.67;;;;;;;-145.69;55.36;52206.75;5114221;28;20204;-81
2023/11/06 00:47:08;;;;;;;3.40;0.67;;;;;;;-145.69;56.12;52240.41;5114660;28;20216;-81
2023/11/06 00:49:36;;;;;;;3.63;0.90;;;;;;;-145.69;55.95;52256.25;5113759;28;20200;-81
2023/11/06 00:52:05;;;;;;;3.47;0.87;;;;;;;-145.69;56.42;52262.19;5114464;28;20217;-81
2023/11/06 00:54:32;;;;;;;2.30;0.80;;;;;;;-145.69;56.13;52210.72;5114417;28;20292;-81
2023/11/06 00:57:03;;;;;;;4.57;0.70;;;;;;;-145.69;56.07;52222.59;5115814;28;20202;-81
2023/11/06 00:59:29;;;;;;;3.63;0.70;;;;;;;-145.69;56.07;52238.44;5113600;28;20201;-80
2023/11/06 01:01:56;;;;;;;2.90;0.80;;;;;;;-145.69;55.89;52198.81;5111586;28;20205;-82
2023/11/06 01:04:22;;;;;;;5.43;1.40;;;;;;;-145.69;56.53;52258.22;5113661;28;20200;-81
2023/11/06 01:06:49;;;;;;;3.80;0.97;;;;;;;-145.69;56.84;52236.44;5113760;28;20262;-81
2023/11/06 01:09:16;;;;;;;1.27;0.70;;;;;;;-145.69;56.77;52254.28;5114024;28;20194;-81
2023/11/06 01:11:48;;;;;;;2.70;0.67;;;;;;;-145.69;56.61;52210.72;5113998;28;20648;-81
2023/11/06 01:14:16;;;;;;;2.73;0.70;;;;;;;-145.69;56.17;52258.22;5113985;28;20227;-80
2023/11/06 01:16:43;;;;;;;0.87;0.50;;;;;;;-145.69;56.34;52210.72;5114387;28;20283;-82
2023/11/06 01:19:09;;;;;;;3.03;0.70;;;;;;;-145.69;56.07;52224.56;5114024;28;20197;-81
2023/11/06 01:21:38;;;;;;;1.80;0.50;;;;;;;-145.69;55.97;52230.50;5114678;28;20193;-82
2023/11/06 01:24:06;;;;;;;2.73;0.70;;;;;;;-145.69;56.23;52232.50;5114733;28;20224;-81
2023/11/06 01:26:32;;;;;;;1.53;0.60;;;;;;;-145.69;56.29;52234.47;5116370;28;20594;-82
2023/11/06 01:28:59;;;;;;;2.20;0.70;;;;;;;-145.69;56.59;52230.50;5116094;28;20612;-81
2023/11/06 01:31:29;;;;;;;1.07;0.40;;;;;;;-145.69;57.03;52240.41;5115572;28;20292;-81
2023/11/06 01:33:55;;;;;;;2.77;0.60;;;;;;;-145.69;57.47;52250.31;5114486;28;20236;-81
2023/11/06 01:36:22;;;;;;;1.80;0.70;;;;;;;-145.69;57.35;52256.25;5113901;28;20197;-82
2023/11/06 01:38:51;;;;;;;5.83;0.90;;;;;;;-145.69;57.69;52238.44;5114367;28;20262;-81
2023/11/06 01:41:18;;;;;;;1.43;0.50;;;;;;;-145.69;57.23;52232.50;5114126;28;20193;-81
2023/11/06 01:43:47;;;;;;;2.47;0.70;;;;;;;-145.69;57.24;52202.78;5113919;28;20208;-81
2023/11/06 01:46:14;;;;;;;5.67;0.80;;;;;;;-145.69;57.20;52276.06;5114641;28;20647;-80
2023/11/06 01:48:43;;;;;;;2.00;0.77;;;;;;;-145.69;57.00;52240.41;5116813;28;20209;-81
2023/11/06 01:51:10;;;;;;;3.77;0.90;;;;;;;-145.69;57.25;52242.38;5120385;28;20200;-82
2023/11/06 01:53:41;;;;;;;4.85;0.73;;;;;;;-145.69;57.55;52238.44;5118135;28;20446;-82
2023/11/06 01:56:08;;;;;;;3.20;0.80;;;;;;;-145.69;57.56;52226.53;5119636;28;20197;-81
2023/11/06 01:58:35;;;;;;;8.30;0.90;;;;;;;-145.69;56.83;52232.50;5118826;28;20579;-82
2023/11/06 02:01:04;;;;;;;6.33;0.67;;;;;;;-145.69;56.83;52246.34;5120588;28;20223;-81
2023/11/06 02:03:33;;;;;;;4.47;0.50;;;;;;;-145.69;57.32;52226.53;5118971;28;20194;-81
2023/11/06 02:06:01;;;;;;;4.07;0.90;;;;;;;-145.69;56.87;52250.31;5118200;28;20315;-81
2023/11/06 02:08:27;;;;;;;3.30;0.77;;;;;;;-145.69;57.13;52238.44;5120009;28;20193;-81
2023/11/06 02:10:54;;;;;;;2.20;0.67;;;;;;;-145.69;56.89;52240.41;5118239;28;20648;-81
2023/11/06 02:13:22;;;;;;;2.67;0.70;;;;;;;-145.69;56.70;52252.28;5120841;28;20224;-82
2023/11/06 02:15:49;;;;;;;1.43;0.60;;;;;;;-145.69;57.15;52242.38;5119122;28;20205;-81
2023/11/06 02:18:15;;;;;;;3.07;0.70;;;;;;;-145.69;56.57;52226.53;5116777;27;20193;-81
2023/11/06 02:20:42;;;;;;;3.10;0.70;;;;;;;-145.69;56.12;52196.84;5117275;28;20555;-81
2023/11/06 02:23:10;;;;;;;2.73;0.50;;;;;;;-145.69;57.23;52258.22;5117377;28;20236;-82
2023/11/06 02:25:36;;;;;;;1.80;0.80;;;;;;;-145.69;56.93;52210.72;5117951;27;20212;-82
2023/11/06 02:28:04;;;;;;;2.50;0.90;;;;;;;-145.69;57.10;52234.47;5117176;28;20201;-82
2023/11/06 02:30:31;;;;;;;3.00;0.77;;;;;;;-145.69;57.01;52210.72;5118466;28;20563;-82
2023/11/06 02:32:57;;;;;;;4.13;0.80;;;;;;;-145.69;57.88;52240.41;5116628;28;20527;-81
2023/11/06 02:35:24;;;;;;;4.77;0.70;;;;;;;-145.69;58.67;52252.28;5118515;28;20198;-81
2023/11/06 02:37:53;;;;;;;2.13;0.70;;;;;;;-145.69;58.49;52238.44;5116786;28;20208;-81
2023/11/06 02:40:21;;;;;;;5.67;0.80;;;;;;;-145.69;58.86;52228.53;5117156;28;20204;-81
2023/11/06 02:42:48;;;;;;;2.97;0.70;;;;;;;-145.69;59.15;52228.53;5117271;28;20205;-81
2023/11/06 02:45:14;;;;;;;6.17;0.87;;;;;;;-145.69;59.96;52252.28;5117303;28;20232;-81
2023/11/06 02:47:41;;;;;;;2.80;0.83;;;;;;;-145.69;59.65;52246.34;5117215;28;20244;-81
2023/11/06 02:50:11;;;;;;;2.83;0.80;;;;;;;-145.69;59.89;52250.31;5118245;27;20644;-81
2023/11/06 02:52:39;;;;;;;6.70;1.87;;;;;;;-145.69;59.55;52242.38;5117374;28;20225;-81
2023/11/06 02:55:06;;;;;;;2.60;0.60;;;;;;;-145.69;60.04;52242.38;5117399;28;20194;-81
2023/11/06 02:57:36;;;;;;;5.87;0.90;;;;;;;-145.69;60.46;52246.34;5117025;28;20204;-81
2023/11/06 03:00:06;;;;;;;6.53;1.13;;;;;;;-145.69;60.54;52260.22;5118926;28;20205;-81
2023/11/06 03:02:33;;;;;;;5.67;0.80;;;;;;;-145.69;60.47;52270.13;5117577;28;20648;-81
2023/11/06 03:05:03;;;;;;;1.87;0.80;;;;;;;-145.69;60.32;52285.97;5116532;28;20194;-81
2023/11/06 03:07:29;;;;;;;2.40;0.70;;;;;;;-145.69;60.35;52250.31;5113605;28;20212;-81
2023/11/06 03:09:56;;;;;;;9.20;1.17;;;;;;;-145.69;59.46;52254.28;5117209;28;20197;-82
2023/11/06 03:12:23;;;;;;;2.77;0.87;;;;;;;-145.69;59.79;52244.38;5116357;28;20198;-80
2023/11/06 03:14:51;;;;;;;6.40;1.03;;;;;;;-145.69;58.86;52242.38;5117535;28;20204;-81
2023/11/06 03:17:18;;;;;;;4.50;0.93;;;;;;;-145.69;58.71;52234.47;5116663;28;20201;-81
2023/11/06 03:19:44;;;;;;;5.93;0.80;;;;;;;-145.69;59.01;52270.13;5116798;28;20203;-82
2023/11/06 03:22:11;;;;;;;3.43;1.10;;;;;;;-145.69;58.96;52236.44;5119442;27;20270;-82
2023/11/06 03:24:38;;;;;;;2.57;0.90;;;;;;;-145.69;59.05;52254.28;5119119;28;20745;-81
2023/11/06 03:27:04;;;;;;;1.93;0.90;;;;;;;-145.69;58.93;52238.44;5117293;28;20207;-81
2023/11/06 03:29:31;;;;;;;1.87;0.60;;;;;;;-145.69;58.46;52226.53;5118128;28;20197;-82
2023/11/06 03:31:59;;;;;;;3.53;0.73;;;;;;;-145.69;58.50;52276.06;5118164;28;20338;-82
2023/11/06 03:34:26;;;;;;;2.87;0.83;;;;;;;-145.69;58.61;52250.31;5118135;28;20227;-81
2023/11/06 03:36:52;;;;;;;5.10;0.90;;;;;;;-145.69;58.32;52228.53;5117668;28;20193;-81
2023/11/06 03:39:19;;;;;;;2.43;0.67;;;;;;;-145.69;58.25;52266.16;5117591;28;20208;-81
2023/11/06 03:41:46;;;;;;;3.07;0.60;;;;;;;-145.69;58.64;52250.31;5116820;28;20228;-81
2023/11/06 03:44:14;;;;;;;1.73;0.67;;;;;;;-145.69;58.77;52270.13;5115996;28;20209;-81
2023/11/06 03:46:41;;;;;;;3.80;0.90;;;;;;;-145.69;58.45;52260.22;5117937;28;20189;-81
2023/11/06 03:49:09;;;;;;;5.83;1.10;;;;;;;-145.69;58.37;52278.03;5116620;28;20204;-81
2023/11/06 03:51:36;;;;;;;5.83;0.70;;;;;;;-145.69;58.34;52246.34;5116677;28;20225;-81
2023/11/06 03:54:03;;;;;;;2.77;0.57;;;;;;;-145.69;58.09;52262.19;5116970;28;20263;-81
2023/11/06 03:56:29;;;;;;;3.47;1.10;;;;;;;-145.69;58.34;52244.38;5115671;28;20197;-81
2023/11/06 03:58:56;;;;;;;1.53;0.60;;;;;;;-145.69;58.78;52254.28;5115517;28;20204;-82
2023/11/06 04:01:22;;;;;;;4.37;0.70;;;;;;;-145.69;60.25;52222.59;5116676;28;20208;-82
2023/11/06 04:03:49;;;;;;;3.93;0.63;;;;;;;-145.69;61.19;52272.09;5117865;28;20193;-81
2023/11/06 04:06:17;;;;;;;0.70;0.40;;;;;;;-145.69;61.68;52287.94;5117584;28;20600;-82
2023/11/06 04:08:44;;;;;;;3.50;0.87;;;;;;;-145.69;61.84;52262.19;5118893;28;20225;-82
2023/11/06 04:11:10;;;;;;;3.70;0.60;;;;;;;-145.69;61.59;52242.38;5119962;28;20247;-82
2023/11/06 04:13:38;;;;;;;2.07;0.70;;;;;;;-145.69;62.44;52252.28;5119400;28;20221;-81
2023/11/06 04:16:06;;;;;;;3.60;0.60;;;;;;;-145.69;62.19;52230.50;5121247;28;20215;-82
2023/11/06 04:18:33;;;;;;;2.73;0.70;;;;;;;-145.69;62.49;52242.38;5118497;28;20602;-81
2023/11/06 04:21:00;;;;;;;3.03;0.60;;;;;;;-145.69;62.78;52246.34;5117733;28;20197;-81
2023/11/06 04:23:29;;;;;;;1.13;0.60;;;;;;;-145.69;62.18;52283.97;5117414;28;20246;-81
2023/11/06 04:25:56;;;;;;;1.73;0.57;;;;;;;-145.69;nan;52262.19;5115503;28;20534;-81
2023/11/06 04:28:23;;;;;;;1.70;0.80;;;;;;;-145.69;61.19;52248.34;5115278;28;20200;-81
2023/11/06 04:30:50;;;;;;;1.07;0.50;;;;;;;-145.69;62.01;52282.00;5117574;28;20296;-81
2023/11/06 04:33:16;;;;;;;1.90;0.60;;;;;;;-145.69;61.54;52282.00;5116627;28;20264;-81
2023/11/06 04:35:43;;;;;;;2.13;0.83;;;;;;;-145.69;62.83;52234.47;5116203;28;20201;-82
2023/11/06 04:38:09;;;;;;;5.30;0.50;;;;;;;-145.69;63.00;52276.06;5118456;28;20201;-82
2023/11/06 04:40:37;;;;;;;0.60;0.50;;;;;;;-145.69;63.29;52262.19;5115173;28;20198;-82
2023/11/06 04:43:04;;;;;;;1.40;0.70;;;;;;;-145.69;62.75;52278.03;5114076;28;20208;-81
2023/11/06 04:45:30;;;;;;;1.80;0.60;;;;;;;-145.69;62.42;52282.00;5114873;28;20201;-82
2023/11/06 04:47:56;;;;;;;3.13;0.83;;;;;;;-145.69;62.44;52258.22;5115654;28;20201;-81
2023/11/06 04:50:26;;;;;;;2.40;0.80;;;;;;;-145.69;61.96;52248.34;5116548;28;20204;-82
2023/11/06 04:52:52;;;;;;;4.00;0.77;;;;;;;-145.69;62.01;52248.34;5113698;28;20262;-81
2023/11/06 04:55:19;;;;;;;2.97;0.93;;;;;;;-145.69;62.23;52252.28;5114146;28;20201;-81
2023/11/06 04:57:47;;;;;;;5.07;1.23;;;;;;;-145.69;62.08;52256.25;5115172;28;20294;-81
2023/11/06 05:00:14;;;;;;;5.93;0.83;;;;;;;-145.69;61.54;52270.13;5113706;28;20262;-81
2023/11/06 05:02:41;;;;;;;3.23;1.00;;;;;;;-145.69;61.04;52270.13;5115075;28;20205;-82
2023/11/06 05:05:09;;;;;;;3.70;0.80;;;;;;;-145.69;61.79;52260.22;5116695;28;20197;-82
2023/11/06 05:07:35;;;;;;;4.23;1.20;;;;;;;-145.69;61.57;52297.84;5116462;28;20197;-82
2023/11/06 05:10:02;;;;;;;2.40;0.70;;;;;;;-145.69;61.49;52266.16;5106589;27;20198;-81
2023/11/06 05:12:32;;;;;;;3.13;0.67;;;;;;;-145.69;61.99;52236.44;5097086;28;20198;-82
2023/11/06 05:15:03;;;;;;;4.07;0.90;;;;;;;-145.69;61.96;52248.34;5094781;28;20282;-81
2023/11/06 05:17:30;;;;;;;2.17;0.80;;;;;;;-145.69;61.94;52234.47;5105160;28;20660;-82
2023/11/06 05:19:57;;;;;;;10.33;0.90;;;;;;;-145.69;62.32;52291.91;5112993;28;20217;-82
2023/11/06 05:22:23;;;;;;;2.43;0.90;;;;;;;-145.69;61.59;52283.97;5114235;28;20204;-81
2023/11/06 05:24:50;;;;;;;6.30;1.30;;;;;;;-145.69;61.67;52303.78;5118377;28;20684;-81
2023/11/06 05:27:17;;;;;;;1.20;0.70;;;;;;;-145.69;62.59;52266.16;5118695;28;20201;-82
2023/11/06 05:29:44;;;;;;;7.27;0.97;;;;;;;-145.69;62.12;52282.00;5120269;28;20641;-82
2023/11/06 05:32:12;;;;;;;2.10;0.83;;;;;;;-145.69;62.82;52289.91;5123396;28;20219;-82
2023/11/06 05:34:39;;;;;;;4.73;0.90;;;;;;;-145.69;62.73;52282.00;5123272;28;20322;-81
2023/11/06 05:37:06;;;;;;;8.83;1.10;;;;;;;-145.69;63.12;52266.16;5123352;28;20205;-81
2023/11/06 05:39:33;;;;;;;4.53;1.10;;;;;;;-145.69;63.17;52238.44;5114314;28;20194;-82
2023/11/06 05:42:00;;;;;;;2.60;1.10;;;;;;;-145.69;63.38;52212.69;5113724;28;20220;-82
2023/11/06 05:44:26;;;;;;;2.10;1.00;;;;;;;-145.69;63.73;52270.13;5113560;28;20193;-82
2023/11/06 05:46:53;;;;;;;3.43;0.93;;;;;;;-145.69;62.70;52282.00;5113432;28;20576;-81
2023/11/06 05:49:21;;;;;;;4.83;1.10;;;;;;;-145.69;63.03;52264.16;5113038;28;20201;-82
2023/11/06 05:51:49;;;;;;;5.23;1.43;;;;;;;-145.69;63.62;52274.06;5112944;28;20200;-81
2023/11/06 05:54:16;;;;;;;2.07;0.97;;;;;;;-145.69;63.26;52270.13;5113896;28;20252;-82
2023/11/06 05:56:43;;;;;;;4.80;0.70;;;;;;;-145.69;64.02;52270.13;5113392;28;20229;-81
2023/11/06 05:59:09;;;;;;;3.53;0.97;;;;;;;-145.69;64.54;52274.06;5112901;28;20628;-81
2023/11/06 06:01:36;;;;;;;3.50;0.93;;;;;;;-145.69;64.10;52297.84;5113324;28;20201;-82
2023/11/06 06:04:02;;;;;;;3.73;1.07;;;;;;;-145.69;64.79;52291.91;5113395;28;20205;-80
2023/11/06 06:06:30;;;;;;;4.77;0.90;;;;;;;-145.69;64.28;52266.16;5112986;28;20324;-80
2023/11/06 06:08:57;;;;;;;4.57;1.17;;;;;;;-145.69;64.78;52272.09;5113184;28;20284;-81
2023/11/06 06:11:24;;;;;;;3.07;0.90;;;;;;;-145.69;64.33;52282.00;5113181;28;20208;-81
2023/11/06 06:13:50;;;;;;;5.40;1.00;;;;;;;-145.69;64.50;52280.00;5113642;28;20220;-81
2023/11/06 06:16:17;;;;;;;2.33;0.70;;;;;;;-145.69;63.85;52291.91;5112669;28;20668;-83
2023/11/06 06:18:44;;;;;;;2.57;0.80;;;;;;;-145.69;64.29;52274.06;5112938;28;20201;-81
2023/11/06 06:21:11;;;;;;;2.90;0.97;;;;;;;-145.69;64.26;52278.03;5112174;28;20648;-81
2023/11/06 06:23:39;;;;;;;1.57;1.00;;;;;;;-145.69;64.71;52285.97;5113131;28;20194;-81
2023/11/06 06:26:06;;;;;;;5.53;1.03;;;;;;;-145.69;64.76;52299.81;5115371;28;20640;-81
2023/11/06 06:28:32;;;;;;;1.10;0.73;;;;;;;-145.69;64.25;52276.06;5114294;28;20202;-81
2023/11/06 06:30:59;;;;;;;2.53;1.10;;;;;;;-145.69;64.04;52266.16;5113356;28;20610;-82
2023/11/06 06:33:25;;;;;;;2.50;1.13;;;;;;;-145.69;64.11;52287.94;5112739;28;20197;-81
2023/11/06 06:35:52;;;;;;;1.17;1.00;;;;;;;-145.69;65.21;52295.84;5115771;28;20206;-81
2023/11/06 06:38:18;;;;;;;3.87;1.00;;;;;;;-145.69;65.31;52272.09;5116774;28;20229;-81
2023/11/06 06:40:49;;;;;;;3.07;1.00;;;;;;;-145.69;65.21;52262.19;5116659;28;20193;-81
2023/11/06 06:43:15;;;;;;;7.73;1.57;;;;;;;-145.69;65.29;52266.16;5116968;28;20258;-81
2023/11/06 06:45:42;;;;;;;5.20;1.10;;;;;;;-145.69;64.61;52254.28;5116539;28;20229;-81
2023/11/06 06:48:08;;;;;;;5.90;0.97;;;;;;;-145.69;64.63;52280.00;5116254;28;20199;-81
2023/11/06 06:50:35;;;;;;;5.33;1.03;;;;;;;-145.69;64.55;52266.16;5115984;28;20220;-81
2023/11/06 06:53:01;;;;;;;4.57;1.13;;;;;;;-145.69;63.88;52289.91;5116331;28;20197;-81
2023/11/06 06:55:28;;;;;;;5.80;1.00;;;;;;;-145.69;62.97;52278.03;5116237;28;20251;-82
2023/11/06 06:57:59;;;;;;;2.40;0.80;;;;;;;-145.69;62.26;52254.28;5116371;28;20201;-81
2023/11/06 07:00:26;;;;;;;2.80;0.73;;;;;;;-145.69;61.31;52266.16;5116194;28;20201;-81
2023/11/06 07:02:53;;;;;;;2.53;0.90;;;;;;;-145.69;60.66;52246.34;5116625;28;20201;-81
2023/11/06 07:05:20;;;;;;;5.80;1.00;;;;;;;-145.69;60.96;52278.03;5116978;28;20228;-81
2023/11/06 07:07:46;;;;;;;1.43;0.83;;;;;;;-145.69;60.51;52266.16;5116890;28;20210;-81
2023/11/06 07:10:13;;;;;;;2.90;0.70;;;;;;;-145.69;60.26;52238.44;5115159;28;20229;-81
2023/11/06 07:12:40;;;;;;;3.37;1.20;;;;;;;-145.69;59.67;52248.34;5112165;28;20281;-81
2023/11/06 07:15:09;;;;;;;0.73;0.57;;;;;;;-145.69;59.44;52226.53;5115249;28;20236;-82
2023/11/06 07:17:36;;;;;;;4.13;1.10;;;;;;;-145.69;59.30;52250.31;5116560;28;20201;-82
2023/11/06 07:20:04;;;;;;;5.47;1.30;;;;;;;-145.69;57.61;52236.44;5117099;28;20201;-81
2023/11/06 07:22:31;;;;;;;6.20;1.53;;;;;;;-145.69;57.73;52220.59;5115792;28;20197;-81
2023/11/06 07:24:57;;;;;;;4.10;1.37;;;;;;;-145.69;57.52;52252.28;5115598;28;20239;-82
2023/11/06 07:27:24;;;;;;;6.07;1.33;;;;;;;-145.69;57.14;52250.31;5115825;28;20202;-81
2023/11/06 07:29:51;;;;;;;5.17;0.87;;;;;;;-145.69;56.35;52274.06;5115234;28;20223;-82
2023/11/06 07:32:19;;;;;;;4.27;0.60;;;;;;;-145.69;56.45;52258.22;5115400;28;20207;-81
2023/11/06 07:34:45;;;;;;;1.80;0.70;;;;;;;-145.69;56.22;52212.69;5115274;28;20252;-81
2023/11/06 07:37:12;;;;;;;2.83;0.80;;;;;;;-145.69;56.37;52252.28;5115337;28;20193;-81
2023/11/06 07:39:38;;;;;;;1.53;0.80;;;;;;;-145.69;56.00;52264.16;5115473;28;20193;-79
2023/11/06 07:42:05;;;;;;;3.00;0.70;;;;;;;-145.69;55.12;52206.75;5115225;28;20671;-79
2023/11/06 07:44:35;;;;;;;1.23;0.60;;;;;;;-145.69;55.75;52226.53;5115562;28;20233;-79
2023/11/06 07:47:01;;;;;;;1.77;0.77;;;;;;;-145.69;55.03;52252.28;5114077;28;20202;-79
2023/11/06 07:49:29;;;;;;;0.67;0.50;;;;;;;-145.69;54.74;52248.34;5115217;28;20198;-80
2023/11/06 07:51:56;;;;;;;3.27;0.83;;;;;;;-145.69;54.02;52234.47;5115097;28;20660;-79
2023/11/06 07:54:22;;;;;;;1.90;0.70;;;;;;;-145.69;54.11;52226.53;5114892;28;20225;-79
2023/11/06 07:56:50;;;;;;;1.80;0.60;;;;;;;-145.69;53.57;52232.50;5114989;28;20293;-80
2023/11/06 07:59:17;;;;;;;3.17;0.80;;;;;;;-145.69;53.46;52254.28;5114889;28;20197;-80
2023/11/06 08:01:43;;;;;;;2.17;0.63;;;;;;;-145.69;53.41;52234.47;5114831;28;20458;-80
2023/11/06 08:04:10;;;;;;;3.03;0.60;;;;;;;-145.69;53.98;52230.50;5114856;28;20300;-80
2023/11/06 08:06:38;;;;;;;1.07;0.60;;;;;;;-145.69;53.18;52190.91;5114090;28;20233;-80
2023/11/06 08:09:05;;;;;;;3.42;0.68;;;;;;;-145.69;53.19;52186.94;5114839;28;20201;-79
2023/11/06 08:11:31;;;;;;;1.98;0.50;;;;;;;-145.69;53.08;52204.75;5114953;28;20201;-79
2023/11/06 08:13:58;;;;;;;2.33;0.55;;;;;;;-145.69;52.77;52234.47;5114551;28;20206;-79
2023/11/06 08:16:24;;;;;;;1.23;0.60;;;;;;;-145.69;52.39;52234.47;5114825;28;20292;-79
2023/11/06 08:18:50;;;;;;;4.72;0.60;;;;;;;-145.69;51.64;52226.53;5115005;28;20201;-80
2023/11/06 08:21:17;;;;;;;1.90;0.97;;;;;;;-145.69;51.55;52206.75;5114813;28;20278;-80
2023/11/06 08:23:45;;;;;;;4.10;0.97;;;;;;;-145.69;51.84;52200.81;5114055;28;20251;-79
2023/11/06 08:26:11;;;;;;;1.58;0.60;;;;;;;-145.69;51.28;52212.69;5114611;28;20228;-79
2023/11/06 08:28:40;;;;;;;4.70;0.82;;;;;;;-145.69;51.47;52198.81;5114714;28;20292;-79
2023/11/06 08:31:06;;;;;;;1.65;0.70;;;;;;;-145.69;50.75;52206.75;5114595;28;20254;-79
2023/11/06 08:33:33;;;;;;;1.67;1.33;;;;;;;-145.69;51.85;52194.88;5114474;28;20591;-79
2023/11/06 08:36:00;;;;;;;2.28;0.70;;;;;;;-145.69;51.34;52208.72;5113465;28;20225;-78
2023/11/06 08:38:26;;;;;;;2.75;0.50;;;;;;;-145.69;51.29;52198.81;5114207;28;20560;-79
2023/11/06 08:40:56;;;;;;;1.60;0.60;;;;;;;-145.69;51.12;52181.00;5113954;28;20197;-79
2023/11/06 08:43:22;;;;;;;1.38;0.50;;;;;;;-145.69;51.35;52186.94;5114391;28;20786;-79
2023/11/06 08:45:49;;;;;;;2.30;0.60;;;;;;;-145.69;50.20;52192.88;5114405;28;20230;-80
2023/11/06 08:48:16;;;;;;;5.10;0.50;;;;;;;-145.69;50.71;52218.63;5114143;28;20549;-79
2023/11/06 08:50:42;;;;;;;1.13;0.43;;;;;;;-145.69;50.07;52214.66;5113999;28;20620;-79
2023/11/06 08:53:09;;;;;;;1.65;0.40;;;;;;;-145.69;49.70;52210.72;5113179;28;20208;-79
2023/11/06 08:55:36;;;;;;;1.63;0.70;;;;;;;-145.69;49.07;52173.09;5113638;28;20229;-79
2023/11/06 08:58:09;;;;;;;0.65;0.47;;;;;;;-145.69;49.21;52175.06;5113982;28;20197;-79
2023/11/06 09:00:36;;;;;;;0.40;0.40;;;;;;;-145.69;49.10;52224.56;5113708;28;20194;-79
2023/11/06 09:03:03;;;;;;;5.05;0.50;;;;;;;-145.69;48.54;52220.59;5113360;28;20216;-79
2023/11/06 09:05:30;;;;;;;0.77;0.40;;;;;;;-145.69;49.12;52220.59;5112952;28;20718;-78
2023/11/06 09:07:56;;;;;;;1.00;0.55;;;;;;;-145.69;50.15;52179.03;5113745;28;20591;-79
2023/11/06 09:10:23;;;;;;;0.60;0.50;;;;;;;-145.69;50.92;52218.63;5113805;28;20201;-79
2023/11/06 09:12:49;;;;;;;0.63;0.45;;;;;;;-145.69;50.58;52222.59;5113719;28;20280;-79
2023/11/06 09:15:18;;;;;;;2.75;0.65;;;;;;;-145.69;50.61;52198.81;5113696;28;20229;-79
2023/11/06 09:17:44;;;;;;;2.63;0.60;;;;;;;-145.69;50.44;52188.91;5113326;28;20197;-81
2023/11/06 09:20:12;;;;;;;0.75;0.50;;;;;;;-145.69;49.37;52202.78;5094835;28;20204;-80
2023/11/06 09:22:38;;;;;;;1.08;0.50;;;;;;;-145.69;49.84;52210.72;5110322;28;20201;-79
2023/11/06 09:25:05;;;;;;;0.45;0.40;;;;;;;-145.69;49.81;52210.72;5106973;28;20247;-79
2023/11/06 09:27:35;;;;;;;1.58;0.68;;;;;;;-145.69;49.73;52171.09;5100276;28;20280;-80
2023/11/06 09:30:02;;;;;;;0.40;0.40;;;;;;;-145.69;48.03;52173.09;5092990;28;20675;-81
2023/11/06 09:32:30;;;;;;;0.55;0.40;;;;;;;-145.69;48.87;52169.13;5106988;28;20194;-80
2023/11/06 09:35:00;;;;;;;1.25;0.50;;;;;;;-145.69;47.70;52175.06;5111452;28;20465;-81
2023/11/06 09:37:26;;;;;;;1.85;0.68;;;;;;;-145.69;47.25;52171.09;5112843;28;20204;-81
2023/11/06 09:39:53;;;;;;;1.40;0.90;;;;;;;-145.69;47.52;52159.22;5113448;28;20279;-81
2023/11/06 09:42:19;;;;;;;1.15;0.68;;;;;;;-145.69;47.46;52171.09;5113314;28;20206;-80
2023/11/06 09:44:46;;;;;;;1.17;0.55;;;;;;;-145.69;47.29;52177.03;5112883;28;20201;-81
2023/11/06 09:47:13;;;;;;;1.75;0.40;;;;;;;-145.69;48.21;52188.91;5112921;28;20200;-80
2023/11/06 09:49:44;;;;;;;1.67;1.00;;;;;;;-145.69;46.85;52204.75;5112842;28;20288;-80
2023/11/06 09:52:12;;;;;;;0.43;0.40;;;;;;;-145.69;47.53;52179.03;5113113;28;20205;-80
2023/11/06 09:54:41;;;;;;;1.23;0.50;;;;;;;-145.69;46.64;52155.25;5112985;28;20296;-81
2023/11/06 09:57:12;;;;;;;1.52;0.68;;;;;;;-145.69;46.65;52133.47;5112914;28;20193;-79
2023/11/06 09:59:39;;;;;;;0.88;0.70;;;;;;;-145.69;46.90;52184.97;5112761;28;20250;-81
2023/11/06 10:02:05;;;;;;;0.95;0.52;;;;;;;-145.69;45.16;52171.09;5112602;28;20594;-82
2023/11/06 10:04:32;;;;;;;4.95;1.48;;;;;;;-145.69;46.04;52165.16;5112820;28;20211;-82
2023/11/06 10:07:00;;;;;;;0.80;0.50;;;;;;;-145.69;45.06;52171.09;5114770;28;20554;-81
2023/11/06 10:09:27;;;;;;;17.75;3.72;;;;;;;-145.69;45.25;52153.28;5114913;28;20204;-81
2023/11/06 10:11:57;;;;;;;1.05;0.50;;;;;;;-145.69;45.15;52171.09;5117048;28;20204;-81
2023/11/06 10:14:36;;;;;;;3.28;1.58;;;;;;;-145.69;45.66;52163.19;5116749;28;20250;-80
2023/11/06 10:17:03;;;;;;;2.28;0.40;;;;;;;-145.69;45.47;52177.03;5122569;27;20532;-80
2023/11/06 10:19:30;;;;;;;2.50;0.80;;;;;;;-145.69;46.08;52165.16;5118079;28;20246;-81
2023/11/06 10:21:57;;;;;;;0.82;0.60;;;;;;;-145.69;46.40;52143.38;5116693;28;20186;-81
2023/11/06 10:24:25;;;;;;;1.30;0.50;;;;;;;-145.69;45.65;52159.22;5116729;28;20277;-81
2023/11/06 10:26:51;;;;;;;1.27;0.55;;;;;;;-145.69;45.85;52188.91;5116507;28;20676;-81
2023/11/06 10:29:19;;;;;;;1.70;0.50;;;;;;;-145.69;46.16;52103.78;5116974;28;20201;-80
2023/11/06 10:31:47;;;;;;;0.70;0.50;;;;;;;-145.69;45.75;52161.19;5116607;28;20327;-81
2023/11/06 10:34:27;;;;;;;0.70;0.50;;;;;;;-145.69;45.05;52186.94;5116479;28;20196;-80
2023/11/06 10:37:09;;;;;;;0.68;0.40;;;;;;;-145.69;45.20;52133.47;5116374;28;20223;-80
2023/11/06 10:39:39;;;;;;;0.60;0.40;;;;;;;-145.69;45.29;52165.16;5115739;28;20307;-80
2023/11/06 10:42:07;;;;;;;1.58;0.40;;;;;;;-145.69;45.30;52177.03;5116421;28;20207;-81
2023/11/06 10:44:35;;;;;;;0.85;0.40;;;;;;;-145.69;45.83;52175.06;5117751;28;20203;-81
2023/11/06 10:47:07;;;;;;;1.85;0.40;;;;;;;-145.69;44.64;52135.47;5116823;28;20209;-80
2023/11/06 10:49:35;;;;;;;0.50;0.50;;;;;;;-145.69;44.50;52167.13;5117412;28;20267;-80
2023/11/06 10:52:04;;;;;;;1.05;0.40;;;;;;;-145.69;44.48;52161.19;5115664;28;20204;-80
2023/11/06 10:54:31;;;;;;;0.65;0.43;;;;;;;-145.69;45.31;52149.31;5116729;27;20644;-79
2023/11/06 10:57:01;;;;;;;0.80;0.43;;;;;;;-145.69;45.91;52163.19;5118023;28;20217;-79
2023/11/06 10:59:30;;;;;;;0.50;0.40;;;;;;;-145.69;45.52;52163.19;5120101;28;20193;-80
2023/11/06 11:01:57;;;;;;;1.40;0.60;;;;;;;-145.69;44.65;52186.94;5117590;28;20619;-80
2023/11/06 11:04:24;;;;;;;2.47;0.40;;;;;;;-145.69;44.63;52167.13;5117135;28;20682;-80
2023/11/06 11:06:51;;;;;;;1.33;0.60;;;;;;;-145.69;44.16;52171.09;5116850;27;20225;-80
2023/11/06 11:09:18;;;;;;;0.65;0.35;;;;;;;-145.69;44.12;52171.09;5117492;28;20233;-80
2023/11/06 11:11:45;;;;;;;0.57;0.45;;;;;;;-145.69;43.98;52169.13;5116688;28;20197;-80
2023/11/06 11:14:14;;;;;;;0.70;0.40;;;;;;;-145.69;43.43;52167.13;5108418;28;20259;-80
2023/11/06 11:16:41;;;;;;;2.63;1.17;;;;;;;-145.69;43.67;52167.13;5097632;28;20317;-80